createdAt,value
2018-02-01T00:00:46.934Z,4.45
2018-02-01T00:03:13.469Z,4.68
2018-02-01T00:05:39.866Z,4.12
2018-02-01T00:08:06.266Z,4.43
2018-02-01T00:10:33.441Z,3.70
2018-02-01T00:12:59.845Z,4.35
2018-02-01T00:15:27.058Z,3.50
2018-02-01T00:17:53.490Z,4.50
2018-02-01T00:20:19.903Z,4.03
2018-02-01T00:22:46.355Z,4.22
2018-02-01T00:25:12.782Z,4.20
2018-02-01T00:27:39.199Z,4.12
2018-02-01T00:30:05.637Z,5.22
2018-02-01T00:32:32.068Z,4.18
2018-02-01T00:34:58.480Z,4.32
2018-02-01T00:37:25.691Z,4.28
2018-02-01T00:39:52.130Z,4.12
2018-02-01T00:42:18.506Z,4.10
2018-02-01T00:44:45.652Z,4.30
2018-02-01T00:47:12.811Z,3.70
2018-02-01T00:49:39.205Z,4.32
2018-02-01T00:52:05.629Z,3.85
2018-02-01T00:54:32.047Z,3.83
2018-02-01T00:56:58.516Z,3.90
2018-02-01T00:59:24.973Z,3.33
2018-02-01T01:01:52.200Z,3.65
2018-02-01T01:04:18.690Z,2.62
2018-02-01T01:06:45.137Z,3.80
2018-02-01T01:09:11.571Z,3.33
2018-02-01T01:11:38.003Z,2.80
2018-02-01T01:14:04.440Z,2.80
2018-02-01T01:16:30.853Z,2.92
2018-02-01T01:18:57.258Z,2.37
2018-02-01T01:21:23.694Z,2.12
2018-02-01T01:23:50.841Z,1.70
2018-02-01T01:26:17.245Z,1.85
2018-02-01T01:28:43.708Z,1.85
2018-02-01T01:31:10.893Z,1.60
2018-02-01T01:33:37.334Z,1.33
2018-02-01T01:36:04.509Z,1.20
2018-02-01T01:38:30.929Z,1.40
2018-02-01T01:40:57.354Z,1.42
2018-02-01T01:43:23.770Z,1.80
2018-02-01T01:46:03.003Z,1.50
2018-02-01T01:48:30.131Z,1.23
2018-02-01T01:50:56.572Z,1.02
2018-02-01T01:53:23.030Z,1.20
2018-02-01T01:55:50.198Z,1.30
2018-02-01T01:58:16.594Z,1.10
2018-02-01T02:00:42.996Z,1.20
2018-02-01T02:03:09.426Z,1.33
2018-02-01T02:05:35.850Z,1.60
2018-02-01T02:08:02.278Z,0.98
2018-02-01T02:10:28.753Z,1.08
2018-02-01T02:12:55.139Z,1.00
2018-02-01T02:15:21.552Z,0.95
2018-02-01T02:17:48.677Z,1.00
2018-02-01T02:20:15.103Z,1.37
2018-02-01T02:22:41.517Z,1.02
2018-02-01T02:25:07.914Z,1.17
2018-02-01T02:27:35.079Z,1.20
2018-02-01T02:30:01.525Z,1.20
2018-02-01T02:32:27.944Z,1.33
2018-02-01T02:34:54.365Z,1.30
2018-02-01T02:37:21.559Z,0.98
2018-02-01T02:39:47.954Z,0.90
2018-02-01T02:42:15.110Z,1.20
2018-02-01T02:44:41.534Z,1.15
2018-02-01T02:47:07.960Z,0.95
2018-02-01T02:49:35.110Z,0.93
2018-02-01T02:52:02.268Z,1.00
2018-02-01T02:54:29.434Z,1.10
2018-02-01T02:56:55.846Z,1.27
2018-02-01T02:59:23.018Z,0.88
2018-02-01T03:01:49.442Z,0.93
2018-02-01T03:04:16.569Z,1.40
2018-02-01T03:06:43.030Z,1.33
2018-02-01T03:09:10.214Z,0.90
2018-02-01T03:11:36.688Z,1.10
2018-02-01T03:14:03.144Z,1.08
2018-02-01T03:21:23.532Z,0.90
2018-02-01T03:23:49.930Z,1.37
2018-02-01T03:26:16.363Z,1.20
2018-02-01T03:28:42.804Z,1.37
2018-02-01T03:31:09.256Z,0.70
2018-02-01T03:33:35.749Z,0.88
2018-02-01T03:36:02.880Z,0.80
2018-02-01T03:38:29.382Z,0.77
2018-02-01T03:40:55.849Z,0.60
2018-02-01T03:43:22.331Z,0.60
2018-02-01T03:45:48.745Z,0.60
2018-02-01T03:48:15.946Z,0.70
2018-02-01T03:50:42.387Z,0.45
2018-02-01T03:53:08.798Z,0.50
2018-02-01T04:05:20.437Z,0.50
2018-02-01T04:07:54.471Z,0.40
2018-02-01T04:10:21.004Z,0.40
2018-02-01T04:12:47.449Z,0.47
2018-02-01T04:15:13.905Z,0.50
2018-02-01T04:17:40.402Z,0.50
2018-02-01T04:20:06.842Z,0.40
2018-02-01T04:22:33.277Z,0.57
2018-02-01T04:24:59.723Z,0.40
2018-02-01T04:27:26.106Z,0.40
2018-02-01T04:29:52.611Z,0.50
2018-02-01T04:32:19.022Z,0.40
2018-02-01T04:34:45.434Z,0.40
2018-02-01T04:37:12.597Z,0.40
2018-02-01T04:39:39.017Z,0.50
2018-02-01T04:42:06.202Z,0.47
2018-02-01T04:44:32.639Z,0.40
2018-02-01T04:46:59.080Z,0.40
2018-02-01T04:49:25.486Z,0.45
2018-02-01T04:51:51.893Z,0.80
2018-02-01T04:54:18.306Z,0.65
2018-02-01T04:56:44.735Z,0.80
2018-02-01T04:59:11.130Z,1.17
2018-02-01T05:01:37.591Z,0.50
2018-02-01T05:04:04.033Z,0.40
2018-02-01T05:06:30.482Z,0.40
2018-02-01T05:08:56.932Z,0.50
2018-02-01T05:11:23.317Z,0.40
2018-02-01T05:13:49.848Z,0.40
2018-02-01T05:16:16.281Z,0.40
2018-02-01T05:18:42.687Z,0.40
2018-02-01T05:21:09.843Z,0.40
2018-02-01T05:23:36.974Z,0.40
2018-02-01T05:26:03.423Z,0.40
2018-02-01T05:28:30.598Z,0.57
2018-02-01T05:30:57.030Z,0.50
2018-02-01T05:33:23.484Z,0.73
2018-02-01T05:35:49.873Z,0.50
2018-02-01T05:38:17.024Z,0.50
2018-02-01T05:40:44.189Z,0.50
2018-02-01T05:43:11.503Z,0.40
2018-02-01T05:45:37.954Z,0.50
2018-02-01T05:48:04.357Z,0.50
2018-02-01T05:50:30.761Z,0.50
2018-02-01T05:52:57.216Z,0.50
2018-02-01T05:55:23.625Z,0.80
2018-02-01T05:57:50.060Z,0.45
2018-02-01T06:05:09.741Z,0.45
2018-02-01T06:07:36.402Z,0.60
2018-02-01T06:10:03.628Z,0.60
2018-02-01T06:12:30.019Z,0.50
2018-02-01T06:14:56.442Z,0.60
2018-02-01T06:17:22.959Z,0.60
2018-02-01T06:19:50.173Z,0.50
2018-02-01T06:22:16.619Z,0.50
2018-02-01T06:24:43.745Z,0.50
2018-02-01T06:27:10.178Z,0.50
2018-02-01T06:29:36.587Z,0.60
2018-02-01T06:32:02.995Z,0.70
2018-02-01T06:34:30.210Z,0.52
2018-02-01T06:36:56.614Z,0.60
2018-02-01T06:39:23.101Z,0.60
2018-02-01T06:41:49.522Z,0.70
2018-02-01T06:44:16.101Z,0.60
2018-02-01T06:46:42.518Z,0.50
2018-02-01T06:49:09.717Z,0.70
